Tulum, ROO, Mexico
Current Conditions -  °F | °C
As of 9:45 PM on Thursday 30 Oct 2014 (Local Time) from MMCZ Reporting Station
Scattered Clouds Scattered Clouds  
Wind Chill: 70°   Ceiling: Unl
Heat Index: 70°   Visibility: 7mi
Dew Point: 70°   Wind: 0mph
Humidity: 100%   Direction: NA
Pressure: 29.94"   Gusts: NA
Location:  20.22°N, 87.47°W
Report Text: MMCZ 310345Z 00000KT 7SM SCT015 21/21 A2994 RMK 8/400 RTS
Loading
Personal Weather Stations






























Interactive Weather Map
Tropical Storm Tracking
New forecast layout! Learn more

10-Day Weather Forecast

Advertisements
Track Severe Weather on mobile